createdAt,value
2022-10-02T00:01:34.490Z,38.38
2022-10-02T00:04:01.456Z,38.52
2022-10-02T00:06:28.497Z,38.21
2022-10-02T00:08:55.334Z,38.20
2022-10-02T00:11:22.513Z,41.61
2022-10-02T00:13:49.251Z,42.16
2022-10-02T00:16:16.084Z,44.22
2022-10-02T00:18:43.028Z,44.20
2022-10-02T00:21:09.782Z,41.60
2022-10-02T00:23:36.538Z,40.28
2022-10-02T00:26:03.290Z,39.63
2022-10-02T00:28:30.332Z,39.46
2022-10-02T00:30:57.116Z,39.06
2022-10-02T00:33:23.897Z,38.92
2022-10-02T00:35:50.637Z,39.04
2022-10-02T00:38:17.396Z,39.05
2022-10-02T00:40:44.159Z,38.87
2022-10-02T00:43:11.248Z,38.37
2022-10-02T00:45:38.063Z,38.47
2022-10-02T00:48:04.855Z,38.32
2022-10-02T00:50:31.594Z,42.25
2022-10-02T00:52:58.337Z,42.54
2022-10-02T00:55:25.091Z,45.22
2022-10-02T00:57:51.850Z,43.81
2022-10-02T01:00:18.614Z,41.48
2022-10-02T01:02:45.737Z,40.25
2022-10-02T01:05:13.446Z,39.69
2022-10-02T01:07:40.294Z,39.37
2022-10-02T01:10:07.110Z,39.53
2022-10-02T01:12:33.893Z,39.26
2022-10-02T01:15:00.840Z,39.33
2022-10-02T01:17:27.615Z,38.92
2022-10-02T01:19:54.385Z,38.36
2022-10-02T01:22:21.338Z,38.63
2022-10-02T01:24:48.148Z,38.69
2022-10-02T01:27:14.918Z,38.29
2022-10-02T01:29:41.657Z,42.11
2022-10-02T01:32:08.434Z,42.26
2022-10-02T01:34:35.172Z,46.21
2022-10-02T01:37:02.906Z,44.32
2022-10-02T01:39:29.684Z,41.39
2022-10-02T01:41:56.524Z,40.53
2022-10-02T01:44:23.275Z,40.10
2022-10-02T01:46:50.228Z,39.72
2022-10-02T01:49:16.979Z,39.41
2022-10-02T01:51:44.526Z,39.41
2022-10-02T01:54:11.288Z,39.19
2022-10-02T01:56:38.417Z,38.72
2022-10-02T01:59:05.545Z,38.73
2022-10-02T02:01:32.374Z,38.50
2022-10-02T02:03:59.162Z,38.38
2022-10-02T02:06:25.933Z,38.33
2022-10-02T02:08:52.684Z,39.08
2022-10-02T02:11:19.440Z,42.58
2022-10-02T02:13:46.248Z,42.40
2022-10-02T02:16:13.030Z,45.92
2022-10-02T02:18:39.927Z,43.02
2022-10-02T02:21:06.685Z,41.01
2022-10-02T02:23:33.483Z,40.39
2022-10-02T02:26:00.262Z,40.19
2022-10-02T02:28:27.093Z,39.51
2022-10-02T02:30:53.978Z,39.38
2022-10-02T02:33:20.726Z,39.10
2022-10-02T02:35:47.741Z,39.26
2022-10-02T02:38:14.793Z,38.73
2022-10-02T02:40:41.616Z,38.86
2022-10-02T02:43:08.356Z,38.94
2022-10-02T02:45:35.190Z,38.79
2022-10-02T02:48:01.986Z,38.95
2022-10-02T02:50:29.125Z,42.41
2022-10-02T02:52:55.879Z,42.43
2022-10-02T02:55:22.622Z,44.50
2022-10-02T02:57:49.382Z,43.93
2022-10-02T03:00:16.241Z,41.79
2022-10-02T03:02:42.999Z,40.25
2022-10-02T03:05:09.745Z,39.83
2022-10-02T03:07:36.529Z,39.44
2022-10-02T03:10:03.301Z,39.28
2022-10-02T03:12:30.097Z,39.46
2022-10-02T03:14:56.883Z,39.04
2022-10-02T03:17:23.777Z,38.75
2022-10-02T03:19:50.528Z,38.88
2022-10-02T03:22:17.290Z,39.14
2022-10-02T03:24:44.033Z,38.88
2022-10-02T03:27:10.813Z,38.43
2022-10-02T03:29:37.577Z,42.34
2022-10-02T03:32:04.337Z,42.71
2022-10-02T03:34:31.088Z,46.09
2022-10-02T03:36:57.868Z,44.30
2022-10-02T03:39:25.914Z,42.03
2022-10-02T03:41:52.941Z,40.69
2022-10-02T03:44:19.718Z,40.47
2022-10-02T03:46:46.528Z,40.01
2022-10-02T03:49:13.317Z,39.34
2022-10-02T03:51:40.104Z,39.33
2022-10-02T03:54:06.876Z,39.04
2022-10-02T03:56:33.807Z,38.77
2022-10-02T03:59:00.714Z,39.10
2022-10-02T04:01:27.495Z,39.13
2022-10-02T04:03:54.300Z,38.90
2022-10-02T04:06:21.304Z,42.21
2022-10-02T04:08:48.044Z,42.68
2022-10-02T04:11:14.805Z,46.22
2022-10-02T04:13:41.580Z,44.73
2022-10-02T04:16:08.410Z,42.46
2022-10-02T04:18:35.283Z,40.98
2022-10-02T04:21:02.111Z,40.09
2022-10-02T04:23:28.851Z,39.48
2022-10-02T04:25:55.601Z,39.61
2022-10-02T04:28:22.621Z,39.50
2022-10-02T04:30:49.398Z,38.85
2022-10-02T04:33:16.212Z,39.28
2022-10-02T04:35:42.965Z,38.96
2022-10-02T04:38:09.732Z,38.99
2022-10-02T04:40:36.517Z,39.07
2022-10-02T04:43:03.302Z,40.09
2022-10-02T04:45:30.185Z,43.86
2022-10-02T04:47:56.980Z,46.16
2022-10-02T04:50:23.801Z,43.90
2022-10-02T04:52:50.543Z,41.85
2022-10-02T04:55:17.290Z,40.57
2022-10-02T04:57:44.053Z,40.38
2022-10-02T05:00:10.840Z,39.88
2022-10-02T05:02:37.619Z,39.56
2022-10-02T05:05:04.389Z,39.52
2022-10-02T05:07:31.143Z,39.56
2022-10-02T05:09:58.375Z,39.40
2022-10-02T05:12:25.163Z,39.28
2022-10-02T05:14:51.963Z,38.58
2022-10-02T05:17:18.708Z,39.17
2022-10-02T05:19:45.462Z,43.22
2022-10-02T05:22:13.772Z,45.07
2022-10-02T05:24:40.519Z,45.17
2022-10-02T05:27:07.413Z,42.19
2022-10-02T05:29:34.156Z,40.40
2022-10-02T05:32:00.924Z,40.16
2022-10-02T05:34:27.706Z,39.63
2022-10-02T05:36:54.454Z,39.39
2022-10-02T05:39:21.213Z,39.41
2022-10-02T05:41:47.981Z,39.32
2022-10-02T05:44:14.725Z,39.40
2022-10-02T05:46:41.641Z,38.79
2022-10-02T05:49:08.535Z,38.94
2022-10-02T05:51:36.765Z,39.14
2022-10-02T05:54:03.515Z,42.71
2022-10-02T05:56:30.309Z,43.52
2022-10-02T05:58:57.057Z,46.44
2022-10-02T06:01:23.940Z,43.03
2022-10-02T06:03:50.744Z,41.17
2022-10-02T06:06:17.572Z,40.42
2022-10-02T06:08:44.569Z,39.77
2022-10-02T06:11:11.350Z,40.13
2022-10-02T06:13:38.824Z,39.62
2022-10-02T06:16:05.613Z,39.27
2022-10-02T06:18:33.164Z,39.42
2022-10-02T06:20:59.921Z,39.27
2022-10-02T06:23:26.697Z,39.26
2022-10-02T06:25:53.520Z,39.16
2022-10-02T06:28:20.330Z,39.11
2022-10-02T06:30:47.169Z,40.91
2022-10-02T06:33:13.959Z,43.08
2022-10-02T06:35:42.960Z,43.53
2022-10-02T06:38:10.602Z,45.69
2022-10-02T06:40:37.360Z,43.07
2022-10-02T06:43:04.148Z,41.52
2022-10-02T06:45:31.955Z,40.54
2022-10-02T06:47:59.054Z,40.24
2022-10-02T06:50:27.920Z,39.93
2022-10-02T06:52:54.689Z,39.98
2022-10-02T06:55:21.601Z,39.51
2022-10-02T06:57:48.423Z,39.40
2022-10-02T07:00:17.975Z,39.00
2022-10-02T07:02:44.748Z,38.95
2022-10-02T07:05:11.498Z,39.15
2022-10-02T07:07:38.800Z,39.11
2022-10-02T07:10:06.513Z,41.93
2022-10-02T07:12:33.330Z,42.93
2022-10-02T07:15:00.239Z,44.39
2022-10-02T07:17:27.415Z,45.42
2022-10-02T07:19:54.167Z,42.80
2022-10-02T07:22:43.302Z,41.12
2022-10-02T07:25:07.663Z,40.49
2022-10-02T07:27:34.399Z,39.91
2022-10-02T07:30:01.156Z,39.92
2022-10-02T07:32:28.100Z,39.65
2022-10-02T07:34:54.856Z,39.31
2022-10-02T07:37:22.090Z,39.68
2022-10-02T07:39:48.858Z,39.34
2022-10-02T07:42:15.626Z,39.05
2022-10-02T07:44:42.374Z,39.11
2022-10-02T07:47:09.185Z,41.54
2022-10-02T07:49:36.725Z,43.31
2022-10-02T07:52:03.507Z,45.97
2022-10-02T07:54:30.309Z,44.98
2022-10-02T07:56:57.053Z,42.42
2022-10-02T07:59:24.057Z,41.33
2022-10-02T08:01:50.899Z,40.58
2022-10-02T08:04:18.667Z,40.03
2022-10-02T08:06:46.992Z,40.15
2022-10-02T08:09:13.759Z,39.71
2022-10-02T08:11:40.516Z,39.91
2022-10-02T08:14:07.424Z,39.30
2022-10-02T08:16:34.550Z,39.47
2022-10-02T08:19:01.694Z,39.44
2022-10-02T08:21:28.433Z,39.28
2022-10-02T08:23:55.272Z,41.21
2022-10-02T08:26:22.034Z,46.12
2022-10-02T08:28:48.781Z,46.58
2022-10-02T08:31:16.156Z,42.59
2022-10-02T08:33:43.195Z,40.62
2022-10-02T08:36:10.041Z,40.42
2022-10-02T08:38:36.829Z,39.94
2022-10-02T08:41:04.936Z,39.92
2022-10-02T08:43:31.717Z,39.31
2022-10-02T08:46:02.335Z,39.18
2022-10-02T08:48:29.203Z,39.36
2022-10-02T08:50:55.999Z,39.45
2022-10-02T08:53:22.771Z,39.57
2022-10-02T08:55:50.588Z,45.31
2022-10-02T08:58:17.348Z,46.63
2022-10-02T09:00:44.476Z,43.45
2022-10-02T09:03:11.274Z,40.99
2022-10-02T09:05:40.430Z,40.40
2022-10-02T09:08:08.979Z,40.00
2022-10-02T09:10:35.726Z,39.48
2022-10-02T09:13:02.504Z,39.48
2022-10-02T09:15:29.269Z,39.17
2022-10-02T09:17:56.017Z,39.42
2022-10-02T09:20:22.763Z,39.51
2022-10-02T09:22:49.766Z,39.57
2022-10-02T09:25:16.536Z,43.66
2022-10-02T09:27:43.601Z,46.64
2022-10-02T09:30:10.357Z,44.77
2022-10-02T09:32:42.177Z,41.49
2022-10-02T09:35:08.987Z,40.75
2022-10-02T09:37:35.938Z,40.01
2022-10-02T09:40:02.788Z,39.58
2022-10-02T09:42:29.548Z,39.62
2022-10-02T09:45:01.441Z,39.58
2022-10-02T09:47:28.404Z,39.61
2022-10-02T09:49:57.317Z,39.37
2022-10-02T09:52:24.102Z,39.60
2022-10-02T09:54:50.883Z,42.77
2022-10-02T09:57:17.679Z,46.40
2022-10-02T09:59:44.537Z,46.46
2022-10-02T10:02:11.297Z,42.12
2022-10-02T10:05:04.122Z,41.35
2022-10-02T10:07:25.585Z,40.53
2022-10-02T10:09:52.331Z,40.00
2022-10-02T10:12:19.061Z,40.08
2022-10-02T10:14:45.885Z,39.47
2022-10-02T10:17:13.329Z,39.96
2022-10-02T10:19:40.094Z,39.43
2022-10-02T10:22:06.869Z,39.11
2022-10-02T10:24:33.621Z,44.07
2022-10-02T10:27:00.370Z,47.00
2022-10-02T10:29:27.125Z,45.27
2022-10-02T10:31:53.915Z,41.94
2022-10-02T10:34:20.716Z,40.96
2022-10-02T10:37:06.245Z,40.19
2022-10-02T10:39:32.998Z,40.21
2022-10-02T10:42:01.046Z,40.06
2022-10-02T10:44:27.822Z,40.03
2022-10-02T10:46:54.747Z,39.96
2022-10-02T10:49:21.579Z,39.63
2022-10-02T10:51:48.405Z,39.50
2022-10-02T10:54:15.151Z,45.05
2022-10-02T10:56:42.625Z,47.15
2022-10-02T10:59:09.388Z,44.20
2022-10-02T11:01:38.452Z,41.61
2022-10-02T11:04:05.384Z,40.43
2022-10-02T11:06:32.201Z,40.37
2022-10-02T11:08:59.081Z,40.25
2022-10-02T11:11:27.798Z,39.39
2022-10-02T11:13:54.591Z,39.43
2022-10-02T11:16:21.414Z,39.88
2022-10-02T11:18:48.193Z,39.55
2022-10-02T11:21:15.068Z,40.87
2022-10-02T11:23:41.808Z,46.28
2022-10-02T11:26:08.552Z,46.91
2022-10-02T11:28:35.317Z,43.27
2022-10-02T11:31:02.077Z,41.53
2022-10-02T11:33:28.826Z,40.61
2022-10-02T11:35:56.176Z,40.56
2022-10-02T11:38:23.332Z,40.41
2022-10-02T11:40:50.674Z,40.06
2022-10-02T11:43:17.429Z,40.22
2022-10-02T11:45:44.477Z,39.87
2022-10-02T11:48:12.246Z,39.53
2022-10-02T11:50:39.642Z,39.85
2022-10-02T11:53:06.393Z,45.15
2022-10-02T11:55:33.147Z,47.30
2022-10-02T11:58:00.408Z,44.53
2022-10-02T12:00:27.160Z,42.15
2022-10-02T12:02:54.076Z,41.10
2022-10-02T12:05:21.661Z,40.32
2022-10-02T12:07:48.463Z,40.23
2022-10-02T12:10:15.206Z,40.38
2022-10-02T12:12:41.989Z,40.25
2022-10-02T12:15:08.790Z,40.27
2022-10-02T12:17:35.584Z,40.11
2022-10-02T12:20:21.173Z,39.66
2022-10-02T12:23:06.530Z,41.40
2022-10-02T12:25:51.895Z,46.80
2022-10-02T12:28:20.075Z,46.53
2022-10-02T12:30:46.886Z,42.42
2022-10-02T12:33:14.484Z,40.96
2022-10-02T12:35:42.437Z,40.73
2022-10-02T12:38:09.186Z,40.22
2022-10-02T12:40:35.960Z,40.12
2022-10-02T12:43:02.701Z,39.94
2022-10-02T12:45:30.845Z,40.34
2022-10-02T12:47:57.648Z,39.80
2022-10-02T12:50:24.424Z,39.25
2022-10-02T12:52:51.693Z,42.25
2022-10-02T12:55:18.452Z,46.24
2022-10-02T12:57:58.659Z,47.65
2022-10-02T13:00:25.480Z,42.54
2022-10-02T13:03:07.367Z,41.18
2022-10-02T13:05:34.405Z,40.43
2022-10-02T13:08:01.151Z,40.27
2022-10-02T13:10:27.892Z,40.02
2022-10-02T13:12:54.664Z,40.09
2022-10-02T13:15:21.968Z,39.74
2022-10-02T13:17:48.806Z,40.08
2022-10-02T13:20:15.553Z,39.71
2022-10-02T13:22:42.288Z,45.16
2022-10-02T13:25:09.033Z,46.97
2022-10-02T13:27:36.384Z,44.92
2022-10-02T13:30:03.220Z,41.76
2022-10-02T13:32:31.859Z,41.28
2022-10-02T13:34:58.637Z,40.63
2022-10-02T13:37:25.577Z,40.53
2022-10-02T13:39:52.333Z,40.06
2022-10-02T13:42:19.225Z,40.17
2022-10-02T13:44:48.646Z,40.04
2022-10-02T13:47:15.425Z,39.94
2022-10-02T13:49:42.415Z,40.13
2022-10-02T13:52:09.829Z,42.82
2022-10-02T13:54:37.347Z,43.06
2022-10-02T13:57:05.052Z,44.83
2022-10-02T13:59:32.359Z,43.98
2022-10-02T14:01:59.131Z,42.54
2022-10-02T14:04:27.273Z,41.44
2022-10-02T14:06:54.029Z,40.68
2022-10-02T14:09:20.820Z,40.92
2022-10-02T14:11:48.035Z,40.41
2022-10-02T14:14:14.790Z,40.03
2022-10-02T14:16:41.610Z,40.13
2022-10-02T14:19:08.657Z,39.71
2022-10-02T14:21:35.716Z,40.66
2022-10-02T14:24:02.785Z,46.16
2022-10-02T14:26:29.801Z,47.39
2022-10-02T14:28:56.588Z,43.94
2022-10-02T14:31:23.481Z,42.30
2022-10-02T14:33:50.311Z,40.98
2022-10-02T14:36:18.096Z,40.94
2022-10-02T14:38:44.869Z,40.42
2022-10-02T14:41:11.641Z,40.04
2022-10-02T14:43:38.388Z,39.95
2022-10-02T14:46:05.228Z,40.04
2022-10-02T14:48:32.139Z,40.00
2022-10-02T14:50:58.893Z,39.71
2022-10-02T14:53:25.658Z,41.16
2022-10-02T14:55:52.422Z,45.95
2022-10-02T14:58:19.225Z,46.92
2022-10-02T15:00:46.008Z,43.05
2022-10-02T15:03:12.806Z,41.39
2022-10-02T15:05:39.577Z,40.95
2022-10-02T15:08:06.322Z,40.23
2022-10-02T15:10:33.112Z,40.22
2022-10-02T15:13:03.594Z,40.26
2022-10-02T15:15:31.826Z,40.02
2022-10-02T15:18:00.256Z,39.73
2022-10-02T15:20:27.157Z,42.35
2022-10-02T15:22:53.910Z,46.39
2022-10-02T15:25:20.803Z,47.76
2022-10-02T15:27:47.633Z,42.98
2022-10-02T15:30:15.134Z,41.79
2022-10-02T15:32:41.913Z,40.79
2022-10-02T15:35:08.659Z,40.17
2022-10-02T15:37:35.405Z,40.31
2022-10-02T15:40:05.222Z,40.17
2022-10-02T15:42:31.981Z,40.02
2022-10-02T15:44:58.732Z,39.55
2022-10-02T15:47:25.714Z,39.79
2022-10-02T15:49:52.461Z,39.94
2022-10-02T15:52:19.280Z,39.96
2022-10-02T15:54:46.128Z,45.15
2022-10-02T15:57:13.023Z,47.40
2022-10-02T15:59:39.785Z,44.60
2022-10-02T16:02:06.678Z,42.13
2022-10-02T16:04:33.487Z,41.13
2022-10-02T16:07:00.406Z,40.70
2022-10-02T16:09:27.181Z,39.93
2022-10-02T16:11:54.075Z,40.18
2022-10-02T16:14:20.832Z,40.20
2022-10-02T16:16:47.704Z,40.11
2022-10-02T16:19:14.503Z,39.95
2022-10-02T16:21:41.349Z,43.22
2022-10-02T16:24:08.123Z,46.70
2022-10-02T16:26:35.382Z,46.81
2022-10-02T16:29:02.434Z,43.14
2022-10-02T16:31:29.960Z,41.73
2022-10-02T16:33:56.789Z,41.00
2022-10-02T16:36:29.801Z,40.65
2022-10-02T16:38:56.577Z,40.69
2022-10-02T16:41:24.378Z,40.52
2022-10-02T16:43:52.676Z,40.16
2022-10-02T16:46:19.453Z,40.50
2022-10-02T16:48:46.192Z,40.04
2022-10-02T16:51:12.999Z,39.68
2022-10-02T16:53:39.829Z,43.36
2022-10-02T16:56:06.677Z,43.26
2022-10-02T16:58:33.441Z,45.46
2022-10-02T17:01:01.930Z,45.52
2022-10-02T17:03:28.951Z,43.47
2022-10-02T17:05:55.717Z,41.87
2022-10-02T17:08:22.698Z,41.37
2022-10-02T17:10:50.268Z,41.36
2022-10-02T17:13:17.096Z,40.90
2022-10-02T17:15:46.936Z,40.81
2022-10-02T17:18:13.848Z,40.67
2022-10-02T17:20:40.602Z,40.58
2022-10-02T17:23:07.381Z,40.70
2022-10-02T17:25:34.199Z,40.39
2022-10-02T17:28:01.132Z,40.27
2022-10-02T17:30:28.807Z,41.97
2022-10-02T17:32:56.629Z,43.69
2022-10-02T17:35:23.690Z,43.75
2022-10-02T17:37:50.437Z,45.16
2022-10-02T17:40:17.232Z,43.62
2022-10-02T17:42:43.964Z,42.65
2022-10-02T17:45:10.736Z,41.78
2022-10-02T17:47:37.568Z,41.11
2022-10-02T17:50:04.336Z,41.13
2022-10-02T17:52:49.925Z,40.63
2022-10-02T17:55:35.244Z,40.37
2022-10-02T17:58:02.122Z,40.53
2022-10-02T18:00:28.941Z,40.25
2022-10-02T18:02:55.745Z,40.09
2022-10-02T18:05:22.596Z,40.40
2022-10-02T18:07:51.903Z,43.89
2022-10-02T18:10:18.652Z,43.32
2022-10-02T18:12:45.442Z,45.58
2022-10-02T18:15:12.212Z,45.42
2022-10-02T18:17:39.877Z,42.89
2022-10-02T18:20:06.650Z,42.32
2022-10-02T18:22:33.418Z,41.57
2022-10-02T18:25:00.265Z,41.34
2022-10-02T18:27:27.068Z,41.47
2022-10-02T18:29:53.841Z,40.66
2022-10-02T18:32:20.845Z,41.05
2022-10-02T18:34:47.709Z,40.66
2022-10-02T18:37:14.461Z,40.57
2022-10-02T18:39:41.736Z,40.63
2022-10-02T18:42:08.531Z,42.84
2022-10-02T18:44:35.397Z,43.81
2022-10-02T18:47:03.049Z,44.45
2022-10-02T18:49:29.824Z,46.25
2022-10-02T18:51:56.995Z,44.18
2022-10-02T18:54:24.734Z,42.50
2022-10-02T18:56:51.814Z,41.94
2022-10-02T18:59:18.576Z,41.45
2022-10-02T19:01:45.514Z,41.27
2022-10-02T19:04:12.322Z,40.69
2022-10-02T19:06:39.090Z,40.82
2022-10-02T19:09:05.907Z,40.94
2022-10-02T19:11:32.720Z,41.02
2022-10-02T19:14:02.097Z,40.99
2022-10-02T19:16:30.000Z,40.23
2022-10-02T19:18:56.864Z,40.69
2022-10-02T19:21:23.737Z,43.62
2022-10-02T19:23:50.489Z,44.10
2022-10-02T19:26:17.264Z,45.77
2022-10-02T19:28:45.461Z,46.41
2022-10-02T19:31:13.301Z,44.31
2022-10-02T19:33:41.987Z,43.03
2022-10-02T19:36:10.721Z,42.05
2022-10-02T19:38:37.476Z,41.37
2022-10-02T19:41:04.937Z,41.43
2022-10-02T19:43:32.358Z,41.55
2022-10-02T19:45:59.240Z,40.75
2022-10-02T19:48:26.025Z,40.95
2022-10-02T19:50:52.933Z,40.79
2022-10-02T19:53:19.673Z,40.98
2022-10-02T19:55:46.443Z,40.76
2022-10-02T19:58:14.031Z,40.75
2022-10-02T20:00:40.778Z,44.33
2022-10-02T20:03:07.549Z,43.47
2022-10-02T20:05:34.302Z,45.96
2022-10-02T20:08:06.441Z,45.60
2022-10-02T20:10:33.742Z,43.48
2022-10-02T20:13:00.509Z,42.86
2022-10-02T20:15:47.566Z,42.13
2022-10-02T20:18:14.470Z,41.61
2022-10-02T20:20:41.242Z,41.27
2022-10-02T20:23:08.085Z,41.09
2022-10-02T20:25:34.829Z,41.04
2022-10-02T20:28:02.326Z,41.16
2022-10-02T20:30:29.178Z,40.58
2022-10-02T20:32:55.980Z,40.63
2022-10-02T20:35:22.791Z,40.67
2022-10-02T20:37:49.576Z,44.15
2022-10-02T20:40:16.347Z,44.04
2022-10-02T20:42:43.111Z,45.72
2022-10-02T20:45:09.917Z,46.27
2022-10-02T20:47:36.710Z,44.33
2022-10-02T20:50:04.388Z,42.81
2022-10-02T20:52:34.304Z,41.79
2022-10-02T20:55:01.064Z,41.38
2022-10-02T20:57:49.272Z,41.61
2022-10-02T21:00:15.808Z,41.57
2022-10-02T21:02:42.713Z,41.18
2022-10-02T21:05:09.453Z,41.31
2022-10-02T21:07:37.090Z,40.97
2022-10-02T21:10:03.848Z,41.00
2022-10-02T21:12:30.601Z,40.83
2022-10-02T21:14:57.390Z,40.94
2022-10-02T21:17:24.163Z,44.34
2022-10-02T21:19:52.040Z,43.30
2022-10-02T21:22:19.098Z,45.66
2022-10-02T21:24:45.909Z,46.10
2022-10-02T21:27:12.657Z,44.03
2022-10-02T21:29:39.417Z,42.90
2022-10-02T21:32:06.156Z,42.61
2022-10-02T21:34:32.906Z,41.82
2022-10-02T21:37:00.297Z,41.74
2022-10-02T21:39:27.094Z,40.97
2022-10-02T21:41:53.844Z,41.24
2022-10-02T21:44:20.608Z,41.15
2022-10-02T21:46:47.378Z,40.91
2022-10-02T21:49:14.334Z,41.24
2022-10-02T21:51:41.551Z,41.94
2022-10-02T21:54:08.559Z,44.51
2022-10-02T21:56:35.319Z,43.85
2022-10-02T21:59:02.084Z,46.45
2022-10-02T22:01:28.925Z,45.82
2022-10-02T22:03:56.356Z,43.87
2022-10-02T22:06:23.828Z,42.57
2022-10-02T22:08:51.471Z,42.29
2022-10-02T22:11:18.276Z,41.65
2022-10-02T22:13:45.087Z,41.47
2022-10-02T22:16:11.938Z,41.45
2022-10-02T22:18:39.229Z,41.68
2022-10-02T22:21:05.976Z,41.46
2022-10-02T22:23:32.758Z,41.06
2022-10-02T22:25:59.493Z,41.21
2022-10-02T22:28:27.933Z,42.69
2022-10-02T22:30:54.843Z,44.33
2022-10-02T22:33:21.607Z,44.25
2022-10-02T22:35:48.389Z,47.00
2022-10-02T22:38:15.230Z,45.47
2022-10-02T22:40:41.995Z,43.50
2022-10-02T22:43:08.748Z,42.62
2022-10-02T22:45:35.488Z,42.03
2022-10-02T22:48:02.239Z,41.66
2022-10-02T22:50:29.065Z,41.71
2022-10-02T22:52:55.840Z,41.24
2022-10-02T22:55:22.763Z,41.56
2022-10-02T22:57:49.753Z,41.50
2022-10-02T23:00:16.934Z,41.04
2022-10-02T23:02:43.843Z,41.27
2022-10-02T23:05:10.832Z,40.98
2022-10-02T23:07:37.713Z,40.55
2022-10-02T23:10:05.892Z,44.19
2022-10-02T23:12:36.577Z,44.07
2022-10-02T23:15:03.568Z,46.40
2022-10-02T23:17:30.345Z,46.59
2022-10-02T23:19:57.135Z,44.60
2022-10-02T23:22:23.925Z,43.01
2022-10-02T23:24:50.661Z,42.10
2022-10-02T23:27:17.444Z,42.27
2022-10-02T23:29:44.816Z,41.52
2022-10-02T23:32:11.617Z,41.36
2022-10-02T23:34:39.109Z,41.58
2022-10-02T23:37:06.885Z,41.50
2022-10-02T23:39:33.621Z,41.33
2022-10-02T23:42:00.440Z,41.07
2022-10-02T23:44:27.216Z,41.23
2022-10-02T23:46:53.959Z,42.71
2022-10-02T23:49:20.733Z,44.52
2022-10-02T23:51:47.480Z,44.16
2022-10-02T23:54:14.370Z,46.76
2022-10-02T23:56:41.273Z,45.69
2022-10-02T23:59:08.055Z,44.12
